Time;durP1;ratioP1;P1;durP2;ratioP2;P2;SDS_P1;SDS_P2;PMS_P1;PMS_P2;Temp;Humidity;BMP_temperature;BMP_pressure;BME280_temperature;BME280_humidity;BME280_pressure;Samples;Min_cycle;Max_cycle;Signal;HPM_P1;HPM_P2
2024/01/24 00:01:56;;;;;;;6.60;1.57;;;;;;;1.28;100.00;100587.31;4205899;28;22067;-68
2024/01/24 00:04:23;;;;;;;10.57;2.97;;;;;;;1.24;100.00;100591.06;4212940;28;20270;-68
2024/01/24 00:06:49;;;;;;;4.83;2.70;;;;;;;1.25;100.00;100592.78;4211462;28;21679;-68
2024/01/24 00:09:16;;;;;;;11.77;2.80;;;;;;;1.24;100.00;100596.41;4210804;28;20672;-69
2024/01/24 00:11:42;;;;;;;8.03;2.07;;;;;;;1.22;100.00;100584.94;4204761;28;20253;-69
2024/01/24 00:14:10;;;;;;;0.17;0.17;;;;;;;1.20;100.00;100592.19;4205707;28;20231;-70
2024/01/24 00:16:37;;;;;;;8.20;1.80;;;;;;;1.19;100.00;100599.31;4213204;28;20232;-68
2024/01/24 00:19:03;;;;;;;4.53;0.70;;;;;;;1.18;100.00;100589.59;4206272;28;20387;-68
2024/01/24 00:21:30;;;;;;;0.10;0.10;;;;;;;1.17;100.00;100590.53;4210099;28;20232;-71
2024/01/24 00:23:57;;;;;;;1.03;0.63;;;;;;;1.15;100.00;100587.09;4214376;28;20231;-71
2024/01/24 00:26:23;;;;;;;0.20;0.20;;;;;;;1.10;100.00;100573.13;4208811;28;20328;-69
2024/01/24 00:28:50;;;;;;;10.57;2.07;;;;;;;1.09;100.00;100577.63;4206043;28;20688;-70
2024/01/24 00:31:17;;;;;;;2.33;0.83;;;;;;;1.18;100.00;100588.75;4206662;28;20231;-69
2024/01/24 00:33:43;;;;;;;8.23;2.47;;;;;;;1.23;100.00;100584.88;4207326;28;20526;-69
2024/01/24 00:36:10;;;;;;;6.53;3.70;;;;;;;1.25;100.00;100579.47;4212116;28;22087;-68
2024/01/24 00:38:37;;;;;;;0.30;0.30;;;;;;;1.24;100.00;100575.06;4212464;28;20235;-70
2024/01/24 00:41:03;;;;;;;0.10;0.10;;;;;;;1.23;100.00;100571.56;4208849;28;20603;-72
2024/01/24 00:43:30;;;;;;;0.40;0.40;;;;;;;1.42;100.00;100562.50;4211767;28;20285;-67
2024/01/24 00:45:56;;;;;;;2.03;0.53;;;;;;;1.43;100.00;100566.91;4208505;28;20241;-67
2024/01/24 00:48:23;;;;;;;6.27;2.00;;;;;;;1.35;100.00;100569.13;4213707;28;22017;-68
2024/01/24 00:50:50;;;;;;;2.20;1.23;;;;;;;1.34;100.00;100578.97;4208057;28;20339;-68
2024/01/24 00:53:19;;;;;;;6.73;2.40;;;;;;;1.42;100.00;100576.72;4213306;28;20348;-70
2024/01/24 00:55:47;;;;;;;0.37;0.27;;;;;;;1.50;100.00;100578.13;4215451;28;21965;-69
2024/01/24 00:58:14;;;;;;;8.10;0.90;;;;;;;1.52;100.00;100577.06;4208961;28;20291;-69
2024/01/24 01:00:41;;;;;;;8.43;2.57;;;;;;;1.55;100.00;100555.53;4188354;28;21694;-69
2024/01/24 01:03:08;;;;;;;0.10;0.10;;;;;;;1.58;100.00;100538.53;4205215;28;21826;-69
2024/01/24 01:05:37;;;;;;;1.60;0.77;;;;;;;1.66;100.00;100530.06;4208290;28;20245;-69
2024/01/24 01:08:05;;;;;;;1.87;1.27;;;;;;;1.80;100.00;100531.94;4195010;28;20244;-70
2024/01/24 01:10:32;;;;;;;6.47;1.43;;;;;;;1.75;100.00;100542.88;4213114;28;20238;-69
2024/01/24 01:12:58;;;;;;;1.10;0.80;;;;;;;1.80;100.00;100522.13;4213477;28;20661;-67
2024/01/24 01:15:25;;;;;;;3.40;1.30;;;;;;;1.79;100.00;100511.53;4213897;28;20912;-69
2024/01/24 01:17:51;;;;;;;0.10;0.10;;;;;;;1.80;100.00;100507.94;4212233;28;20369;-69
2024/01/24 01:20:21;;;;;;;3.37;1.00;;;;;;;1.83;100.00;100495.25;4210707;28;21064;-70
2024/01/24 01:22:47;;;;;;;0.40;0.40;;;;;;;2.01;100.00;100482.63;4215583;28;20243;-70
2024/01/24 01:25:14;;;;;;;0.83;0.73;;;;;;;2.20;99.21;100473.50;4213298;28;20396;-68
2024/01/24 01:27:41;;;;;;;0.37;0.37;;;;;;;2.31;98.25;100456.81;4211838;28;21669;-70
2024/01/24 01:30:08;;;;;;;0.10;0.10;;;;;;;2.40;97.65;100436.72;4211799;28;20314;-68
2024/01/24 01:32:34;;;;;;;0.40;0.40;;;;;;;2.47;96.88;100433.56;4214576;28;23321;-70
2024/01/24 01:35:01;;;;;;;0.00;0.00;;;;;;;2.43;96.49;100418.69;4220091;28;20239;-71
2024/01/24 01:37:27;;;;;;;0.00;0.00;;;;;;;2.51;96.22;100405.72;4213969;28;20247;-69
2024/01/24 01:39:55;;;;;;;0.93;0.63;;;;;;;2.52;95.56;100412.78;4214797;28;20842;-69
2024/01/24 01:42:21;;;;;;;0.20;0.20;;;;;;;2.53;95.60;100416.28;4215711;28;21920;-69
2024/01/24 01:44:48;;;;;;;1.03;0.30;;;;;;;2.50;95.28;100400.44;4211129;28;20237;-70
2024/01/24 01:47:16;;;;;;;0.83;0.67;;;;;;;2.61;94.64;100399.75;4211554;28;20231;-71
2024/01/24 01:49:44;;;;;;;0.10;0.10;;;;;;;2.61;94.68;100397.09;4215487;28;21186;-69
2024/01/24 01:52:11;;;;;;;0.83;0.77;;;;;;;2.60;94.57;100400.75;4217880;28;20255;-69
2024/01/24 01:54:40;;;;;;;0.10;0.10;;;;;;;2.69;94.18;100409.03;4214223;28;20325;-72
2024/01/24 01:57:10;;;;;;;1.33;0.83;;;;;;;2.74;93.30;100400.72;4220950;28;20239;-70
2024/01/24 01:59:40;;;;;;;0.10;0.10;;;;;;;2.76;93.08;100379.22;4216221;28;20318;-70
2024/01/24 02:02:06;;;;;;;0.40;0.30;;;;;;;2.70;93.30;100375.13;4222118;28;20252;-68
2024/01/24 02:04:33;;;;;;;4.30;3.93;;;;;;;2.73;92.88;100369.59;4230169;28;21115;-69
2024/01/24 02:07:00;;;;;;;1.00;1.00;;;;;;;2.78;92.63;100366.63;4201949;28;22917;-70
2024/01/24 02:09:27;;;;;;;0.50;0.30;;;;;;;2.75;92.35;100377.50;4210609;28;20233;-68
2024/01/24 02:11:54;;;;;;;4.73;1.47;;;;;;;2.66;92.58;100369.13;4218742;28;20846;-68
2024/01/24 02:14:21;;;;;;;0.43;0.20;;;;;;;2.71;92.39;100360.81;4212383;28;20243;-68
2024/01/24 02:16:47;;;;;;;4.03;1.13;;;;;;;2.76;92.00;100371.22;4227610;28;20240;-70
2024/01/24 02:19:14;;;;;;;0.10;0.10;;;;;;;2.79;91.76;100358.50;4213102;28;20236;-68
2024/01/24 02:21:41;;;;;;;0.30;0.20;;;;;;;2.90;90.97;100356.97;4213900;28;20243;-69
2024/01/24 02:24:12;;;;;;;0.17;0.17;;;;;;;2.92;90.82;100347.00;4212464;28;20701;-69
2024/01/24 02:26:39;;;;;;;2.33;0.47;;;;;;;2.89;90.75;100347.22;4212529;28;20303;-69
2024/01/24 02:29:06;;;;;;;0.10;0.10;;;;;;;2.91;90.67;100345.31;4214754;28;20254;-70
2024/01/24 02:31:32;;;;;;;5.53;1.07;;;;;;;2.80;90.54;100324.59;4217471;28;20334;-67
2024/01/24 02:33:59;;;;;;;0.33;0.33;;;;;;;2.89;90.44;100315.97;4211618;28;20314;-71
2024/01/24 02:36:26;;;;;;;0.90;0.90;;;;;;;2.80;90.63;100301.41;4219722;28;20265;-68
2024/01/24 02:38:53;;;;;;;0.10;0.10;;;;;;;2.84;90.29;100297.56;4216910;28;21917;-70
2024/01/24 02:41:23;;;;;;;0.10;0.10;;;;;;;2.88;90.14;100297.38;4214897;28;20625;-71
2024/01/24 02:43:50;;;;;;;0.40;0.20;;;;;;;2.83;90.10;100292.31;4229359;28;21144;-71
2024/01/24 02:46:16;;;;;;;0.80;0.80;;;;;;;2.93;89.50;100289.88;4213690;28;20236;-71
2024/01/24 02:48:43;;;;;;;0.10;0.10;;;;;;;2.88;89.71;100294.69;4212144;28;20232;-71
2024/01/24 02:51:09;;;;;;;1.23;0.40;;;;;;;2.93;89.45;100290.75;4214314;28;20361;-70
2024/01/24 02:53:38;;;;;;;2.23;0.70;;;;;;;2.90;89.34;100282.09;4209616;28;20342;-68
2024/01/24 02:56:05;;;;;;;0.00;0.00;;;;;;;2.80;89.68;100274.69;4212193;28;20232;-70
2024/01/24 02:58:32;;;;;;;0.13;0.13;;;;;;;2.90;89.35;100260.69;4199697;28;20688;-70
2024/01/24 03:00:58;;;;;;;0.10;0.10;;;;;;;2.78;89.61;100275.75;4214015;28;20236;-70
2024/01/24 03:03:25;;;;;;;0.20;0.20;;;;;;;2.77;89.65;100260.66;4210381;28;20244;-68
2024/01/24 03:05:52;;;;;;;0.10;0.10;;;;;;;2.80;89.00;100245.28;4212181;28;20581;-68
2024/01/24 03:08:18;;;;;;;3.40;0.70;;;;;;;2.73;88.93;100251.09;4216785;28;20235;-69
2024/01/24 03:10:45;;;;;;;1.07;0.57;;;;;;;2.71;88.77;100235.19;4213783;28;20742;-70
2024/01/24 03:13:11;;;;;;;1.70;0.57;;;;;;;2.68;89.07;100220.22;4210387;28;20241;-72
2024/01/24 03:15:38;;;;;;;0.53;0.20;;;;;;;2.71;88.89;100197.75;4209480;28;20243;-67
2024/01/24 03:18:05;;;;;;;6.80;2.73;;;;;;;2.69;88.54;100195.19;4213588;28;20300;-69
2024/01/24 03:20:32;;;;;;;0.60;0.30;;;;;;;2.58;89.20;100178.16;4212169;28;20613;-68
2024/01/24 03:22:58;;;;;;;1.67;0.77;;;;;;;2.48;89.45;100180.59;4210680;28;20937;-70
2024/01/24 03:25:28;;;;;;;0.50;0.20;;;;;;;2.50;89.49;100187.56;4215209;28;21405;-73
2024/01/24 03:27:55;;;;;;;2.93;1.33;;;;;;;2.46;89.57;100182.50;4206542;28;20303;-68
2024/01/24 03:30:21;;;;;;;4.83;1.33;;;;;;;2.39;89.58;100166.03;4208810;28;20322;-72
2024/01/24 03:32:48;;;;;;;2.07;1.17;;;;;;;2.34;89.70;100155.63;4209754;28;20824;-68
2024/01/24 03:35:14;;;;;;;6.00;1.20;;;;;;;2.31;89.48;100166.53;4212595;28;20232;-70
2024/01/24 03:37:41;;;;;;;0.70;0.70;;;;;;;2.40;89.20;100162.41;4213783;28;21464;-70
2024/01/24 03:40:08;;;;;;;0.53;0.53;;;;;;;2.38;88.93;100173.19;4210321;28;25945;-71
2024/01/24 03:42:36;;;;;;;0.33;0.33;;;;;;;2.37;88.64;100167.97;4209202;28;20233;-69
2024/01/24 03:45:02;;;;;;;0.50;0.50;;;;;;;2.43;88.45;100166.66;4211024;28;22826;-70
2024/01/24 03:47:29;;;;;;;0.30;0.30;;;;;;;2.52;87.31;100155.38;4214990;28;20228;-70
2024/01/24 03:49:56;;;;;;;21.63;1.83;;;;;;;2.43;87.53;100143.50;4209864;28;20240;-69
2024/01/24 03:52:22;;;;;;;0.90;0.40;;;;;;;2.51;87.60;100142.97;4208879;28;21178;-69
2024/01/24 03:54:49;;;;;;;4.63;1.37;;;;;;;2.48;87.49;100132.50;4212890;28;20277;-68
2024/01/24 03:57:16;;;;;;;0.10;0.10;;;;;;;2.47;87.44;100120.09;4212787;28;20277;-71
2024/01/24 03:59:42;;;;;;;0.70;0.43;;;;;;;2.48;86.69;100113.81;4210719;28;20451;-69
2024/01/24 04:02:09;;;;;;;0.10;0.10;;;;;;;2.56;86.57;100118.63;4213785;28;20267;-71
2024/01/24 04:04:37;;;;;;;0.73;0.40;;;;;;;2.60;86.25;100118.31;4212553;28;20625;-73
2024/01/24 04:07:04;;;;;;;0.17;0.17;;;;;;;2.58;86.04;100104.19;4216485;28;21444;-68
2024/01/24 04:09:31;;;;;;;1.40;0.50;;;;;;;2.64;85.83;100082.41;4212868;28;20341;-70
2024/01/24 04:11:57;;;;;;;2.77;1.43;;;;;;;2.57;85.96;100090.94;4212276;28;20363;-71
2024/01/24 04:14:24;;;;;;;0.20;0.20;;;;;;;2.61;85.50;100076.41;4213727;28;20237;-69
2024/01/24 04:16:51;;;;;;;1.07;0.43;;;;;;;2.59;85.44;100060.47;4212565;28;23585;-68
2024/01/24 04:19:17;;;;;;;2.37;1.10;;;;;;;2.56;85.70;100055.34;4213863;28;20591;-71
2024/01/24 04:21:44;;;;;;;2.10;0.97;;;;;;;2.62;85.18;100049.59;4212458;28;21119;-69
2024/01/24 04:24:11;;;;;;;0.17;0.17;;;;;;;2.60;84.95;100037.31;4216224;28;20236;-71
2024/01/24 04:26:38;;;;;;;0.40;0.40;;;;;;;2.72;84.67;100025.75;4212002;28;20242;-71
2024/01/24 04:29:04;;;;;;;1.33;0.43;;;;;;;2.68;84.56;100013.56;4208255;28;20240;-69
2024/01/24 04:31:33;;;;;;;3.60;0.57;;;;;;;2.72;84.00;99999.03;4219165;28;20244;-71
2024/01/24 04:33:59;;;;;;;7.30;1.40;;;;;;;2.72;83.87;100001.69;4212518;28;20244;-72
2024/01/24 04:36:26;;;;;;;3.27;0.87;;;;;;;2.68;83.85;100009.06;4213499;28;22128;-71
2024/01/24 04:38:53;;;;;;;0.60;0.60;;;;;;;2.77;83.72;99998.69;4206112;28;20641;-70
2024/01/24 04:41:20;;;;;;;1.03;0.30;;;;;;;2.77;83.54;99988.84;4217386;28;20232;-70
2024/01/24 04:43:46;;;;;;;4.23;1.17;;;;;;;2.70;83.79;99992.91;4221977;28;20424;-72
2024/01/24 04:46:14;;;;;;;4.60;0.63;;;;;;;2.75;83.65;99996.13;4221165;28;20245;-72
2024/01/24 04:48:44;;;;;;;4.10;0.93;;;;;;;2.67;84.10;99982.47;4216772;28;20259;-69
2024/01/24 04:51:11;;;;;;;22.17;0.87;;;;;;;2.75;83.40;99969.41;4216503;28;20239;-69
2024/01/24 04:53:39;;;;;;;1.13;0.30;;;;;;;2.74;83.74;99957.00;4214448;28;20401;-70
2024/01/24 04:56:06;;;;;;;2.63;0.77;;;;;;;2.59;84.09;99948.25;4215802;28;20276;-71
2024/01/24 04:58:33;;;;;;;0.27;0.23;;;;;;;2.62;83.81;99947.16;4217128;28;20235;-69
2024/01/24 05:01:00;;;;;;;0.50;0.43;;;;;;;2.53;84.58;99938.00;4212625;28;23644;-70
2024/01/24 05:03:27;;;;;;;1.47;1.13;;;;;;;2.53;84.56;99922.81;4215761;28;26432;-71
2024/01/24 05:05:54;;;;;;;2.90;0.83;;;;;;;2.64;83.83;99921.19;4218160;28;22666;-71
2024/01/24 05:08:32;;;;;;;8.23;1.60;;;;;;;2.59;83.78;99923.34;4213363;28;20231;-71
2024/01/24 05:10:59;;;;;;;14.20;1.60;;;;;;;2.56;83.95;99919.09;4214904;28;20258;-69
2024/01/24 05:13:26;;;;;;;6.43;1.80;;;;;;;2.58;83.89;99898.44;4217796;28;20511;-70
2024/01/24 05:15:52;;;;;;;2.00;0.50;;;;;;;2.54;83.94;99905.81;4216288;28;20236;-69
2024/01/24 05:18:19;;;;;;;1.03;0.37;;;;;;;2.49;84.64;99907.13;4212045;28;20237;-71
2024/01/24 05:20:47;;;;;;;1.70;0.47;;;;;;;2.52;84.07;99891.72;4216224;28;20243;-72
2024/01/24 05:23:14;;;;;;;0.70;0.43;;;;;;;2.56;84.25;99897.72;4212455;28;21116;-71
2024/01/24 05:25:42;;;;;;;0.60;0.60;;;;;;;2.49;84.11;99885.75;4212976;28;20234;-67
2024/01/24 05:28:12;;;;;;;1.27;0.63;;;;;;;2.45;84.71;99884.25;4214134;28;22649;-73
2024/01/24 05:30:39;;;;;;;2.00;1.33;;;;;;;2.51;84.80;99865.97;4210616;28;20231;-68
2024/01/24 05:33:06;;;;;;;1.10;0.83;;;;;;;2.46;84.44;99854.75;4215168;28;20650;-71
2024/01/24 05:35:32;;;;;;;2.47;0.93;;;;;;;2.47;84.61;99853.78;4215590;28;20231;-71
2024/01/24 05:38:00;;;;;;;2.83;1.87;;;;;;;2.52;84.62;99838.28;4201792;28;20388;-71
2024/01/24 05:40:26;;;;;;;0.40;0.40;;;;;;;2.54;84.49;99820.31;4212757;28;21075;-70
2024/01/24 05:42:53;;;;;;;1.70;0.60;;;;;;;2.45;85.07;99820.13;4215069;28;20228;-70
2024/01/24 05:45:20;;;;;;;1.93;0.97;;;;;;;2.50;84.87;99817.97;4209503;28;20253;-72
2024/01/24 05:47:46;;;;;;;5.47;1.33;;;;;;;2.44;85.09;99789.91;4209077;28;21117;-70
2024/01/24 05:50:14;;;;;;;0.30;0.20;;;;;;;2.52;84.72;99790.19;4203524;28;20231;-68
2024/01/24 05:52:41;;;;;;;4.23;1.33;;;;;;;2.59;84.59;99782.56;4213491;28;20315;-70
2024/01/24 05:55:11;;;;;;;1.07;0.40;;;;;;;2.52;84.74;99763.47;4224192;28;20236;-68
2024/01/24 05:57:42;;;;;;;0.13;0.10;;;;;;;2.54;84.96;99771.38;4208451;28;20236;-69
2024/01/24 06:00:13;;;;;;;1.03;0.53;;;;;;;2.50;85.08;99780.56;4213383;28;20232;-70
2024/01/24 06:02:43;;;;;;;2.70;0.70;;;;;;;2.60;84.63;99791.47;4212281;28;20341;-70
2024/01/24 06:05:15;;;;;;;0.50;0.37;;;;;;;2.60;84.75;99781.59;4209515;28;21543;-69
2024/01/24 06:07:41;;;;;;;0.83;0.83;;;;;;;2.63;84.40;99781.41;4213400;28;21179;-70
2024/01/24 06:10:08;;;;;;;3.10;1.77;;;;;;;2.65;84.70;99787.47;4207619;28;20621;-71
2024/01/24 06:12:35;;;;;;;0.17;0.17;;;;;;;2.72;85.29;99768.31;4216580;28;21078;-67
2024/01/24 06:15:02;;;;;;;0.90;0.70;;;;;;;2.74;85.72;99761.91;4201041;28;21627;-67
2024/01/24 06:17:29;;;;;;;1.37;1.20;;;;;;;2.71;87.26;99758.59;4213689;28;26470;-68
2024/01/24 06:19:59;;;;;;;0.60;0.30;;;;;;;2.60;89.15;99738.03;4211283;28;21519;-67
2024/01/24 06:22:26;;;;;;;4.03;0.73;;;;;;;2.49;91.35;99734.31;4209001;28;20239;-71
2024/01/24 06:24:52;;;;;;;0.50;0.40;;;;;;;2.44;92.85;99749.84;4219662;28;20311;-70
2024/01/24 06:27:19;;;;;;;2.10;1.03;;;;;;;2.33;94.39;99723.91;4217258;28;21183;-67
2024/01/24 06:29:45;;;;;;;8.80;1.47;;;;;;;2.21;96.24;99698.94;4216622;28;20223;-65
2024/01/24 06:32:32;;;;;;;10.90;5.10;;;;;;;2.05;97.75;99709.03;4216383;28;20228;-66
2024/01/24 06:34:58;;;;;;;0.77;0.77;;;;;;;2.01;98.97;99718.22;4214360;28;20596;-67
2024/01/24 06:37:25;;;;;;;2.57;1.03;;;;;;;1.95;99.86;99715.97;4206423;28;20327;-71
2024/01/24 06:39:51;;;;;;;1.67;0.77;;;;;;;1.95;100.00;99695.50;4212633;28;20231;-72
2024/01/24 06:42:18;;;;;;;3.13;1.17;;;;;;;1.87;100.00;99695.19;4215115;28;20270;-69
2024/01/24 06:44:45;;;;;;;4.43;1.67;;;;;;;1.77;100.00;99683.47;4215051;28;20236;-70
2024/01/24 06:47:12;;;;;;;4.40;1.43;;;;;;;1.73;100.00;99672.16;4215444;28;20431;-74
2024/01/24 06:49:38;;;;;;;2.40;0.80;;;;;;;1.65;100.00;99661.19;4212857;28;20290;-69
2024/01/24 06:52:06;;;;;;;0.17;0.17;;;;;;;1.56;100.00;99670.69;4214698;28;20287;-71
2024/01/24 06:54:35;;;;;;;2.10;0.93;;;;;;;1.47;100.00;99658.88;4210690;28;20310;-70
2024/01/24 06:57:03;;;;;;;0.60;0.60;;;;;;;1.50;100.00;99625.78;4215418;28;21275;-71
2024/01/24 06:59:31;;;;;;;1.17;0.97;;;;;;;1.49;100.00;99610.75;4218462;28;20297;-72
2024/01/24 07:01:59;;;;;;;9.30;2.60;;;;;;;1.36;100.00;99594.75;4211662;28;20246;-70
2024/01/24 07:04:25;;;;;;;4.80;2.50;;;;;;;1.43;100.00;99556.88;4214766;28;20307;-70
2024/01/24 07:06:52;;;;;;;5.27;1.07;;;;;;;1.37;100.00;99541.31;4216641;28;20282;-72
2024/01/24 07:09:19;;;;;;;5.80;1.80;;;;;;;1.39;100.00;99523.38;4213946;28;21211;-72
2024/01/24 07:11:45;;;;;;;3.47;1.67;;;;;;;1.38;100.00;99520.84;4211992;28;20593;-72
2024/01/24 07:14:12;;;;;;;1.67;1.17;;;;;;;1.42;100.00;99501.84;4211467;28;20350;-72
2024/01/24 07:16:38;;;;;;;3.90;1.30;;;;;;;1.44;100.00;99499.06;4213543;28;20227;-72
2024/01/24 07:19:06;;;;;;;9.20;1.97;;;;;;;1.41;100.00;99478.81;4217364;28;21157;-71
2024/01/24 07:21:32;;;;;;;1.27;1.17;;;;;;;1.42;100.00;99468.97;4222671;28;21705;-74
2024/01/24 07:23:59;;;;;;;3.07;0.97;;;;;;;1.51;100.00;99473.63;4210486;28;21759;-69
2024/01/24 07:26:25;;;;;;;4.27;1.80;;;;;;;1.46;100.00;99459.81;4209963;28;20356;-70
2024/01/24 07:28:52;;;;;;;12.43;2.83;;;;;;;1.53;100.00;99444.19;4212806;28;20966;-71
2024/01/24 07:31:19;;;;;;;12.00;2.53;;;;;;;1.52;100.00;99455.81;4210638;28;20235;-71
2024/01/24 07:33:45;;;;;;;7.03;2.50;;;;;;;1.57;100.00;99459.84;4215589;28;22386;-70
2024/01/24 07:36:12;;;;;;;1.30;0.90;;;;;;;1.57;100.00;99465.19;4205253;28;20287;-70
2024/01/24 07:38:39;;;;;;;5.80;1.80;;;;;;;1.60;100.00;99442.75;4217469;28;20240;-71
2024/01/24 07:41:07;;;;;;;3.40;1.20;;;;;;;1.59;100.00;99449.06;4209283;28;20290;-72
2024/01/24 07:43:34;;;;;;;2.93;0.80;;;;;;;1.65;100.00;99427.28;4213847;28;20371;-71
2024/01/24 07:46:01;;;;;;;1.33;1.00;;;;;;;1.62;100.00;99434.66;4225084;28;20654;-71
2024/01/24 07:48:32;;;;;;;14.47;1.93;;;;;;;1.61;100.00;99414.28;4212401;28;20327;-70
2024/01/24 07:50:59;;;;;;;2.33;1.07;;;;;;;1.74;100.00;99412.38;4222247;28;21238;-72
2024/01/24 07:53:25;;;;;;;10.57;1.67;;;;;;;1.79;100.00;99396.88;4240472;28;21247;-72
2024/01/24 07:55:52;;;;;;;4.13;1.90;;;;;;;1.85;100.00;99387.53;4219459;28;21337;-68
2024/01/24 07:58:39;;;;;;;0.50;0.30;;;;;;;1.88;100.00;99369.47;4209197;28;22058;-70
2024/01/24 08:01:08;;;;;;;8.50;3.13;;;;;;;1.88;100.00;99365.97;4215267;28;20319;-74
2024/01/24 08:03:34;;;;;;;2.13;0.73;;;;;;;1.95;100.00;99369.00;4243851;28;20307;-73
2024/01/24 08:06:02;;;;;;;4.67;1.87;;;;;;;1.96;100.00;99330.66;4221969;28;21501;-69
2024/01/24 08:08:29;;;;;;;2.63;1.30;;;;;;;1.99;100.00;99336.63;4230818;28;21667;-70
2024/01/24 08:10:56;;;;;;;2.87;0.90;;;;;;;2.03;100.00;99314.06;4214089;28;21792;-72
2024/01/24 08:13:23;;;;;;;3.47;1.17;;;;;;;2.06;100.00;99319.16;4216241;28;21885;-71
2024/01/24 08:15:50;;;;;;;0.90;0.53;;;;;;;2.05;100.00;99330.78;4213615;28;25514;-73
2024/01/24 08:18:16;;;;;;;6.10;0.60;;;;;;;2.05;100.00;99319.28;4216963;28;23862;-70
2024/01/24 08:20:43;;;;;;;0.57;0.47;;;;;;;2.14;100.00;99326.56;4230615;28;20245;-67
2024/01/24 08:23:11;;;;;;;1.17;0.67;;;;;;;2.11;100.00;99310.78;4243026;28;21749;-71
2024/01/24 08:25:38;;;;;;;2.90;1.40;;;;;;;2.11;100.00;99289.44;4215857;28;20425;-72
2024/01/24 08:28:04;;;;;;;2.00;0.87;;;;;;;2.12;100.00;99299.13;4252791;28;20454;-70
2024/01/24 08:30:31;;;;;;;0.90;0.50;;;;;;;2.17;100.00;99280.91;4226763;28;20288;-73
2024/01/24 08:32:58;;;;;;;1.97;0.80;;;;;;;2.17;100.00;99283.59;4234266;28;20932;-71
2024/01/24 08:35:25;;;;;;;1.83;1.03;;;;;;;2.17;100.00;99270.25;4241316;28;20998;-72
2024/01/24 08:37:51;;;;;;;6.00;1.47;;;;;;;2.25;100.00;99271.44;4228324;28;20674;-71
2024/01/24 08:40:19;;;;;;;1.07;0.67;;;;;;;2.29;100.00;99267.56;4259954;28;20605;-73
2024/01/24 08:42:45;;;;;;;5.90;1.27;;;;;;;2.33;100.00;99248.50;4256333;28;20635;-74
2024/01/24 08:45:12;;;;;;;12.07;0.60;;;;;;;2.34;100.00;99262.69;4247116;28;20240;-71
2024/01/24 08:47:39;;;;;;;1.30;0.60;;;;;;;2.29;100.00;99243.53;4222061;28;20252;-72
2024/01/24 08:50:06;;;;;;;8.30;1.77;;;;;;;2.36;100.00;99248.25;4230720;28;20655;-73
2024/01/24 08:52:33;;;;;;;1.60;0.53;;;;;;;2.48;100.00;99245.56;4279399;28;20230;-73
2024/01/24 08:55:00;;;;;;;0.83;0.83;;;;;;;2.50;100.00;99239.13;4242215;28;24886;-71
2024/01/24 08:57:28;;;;;;;5.07;1.33;;;;;;;2.40;100.00;99230.16;4254750;28;20619;-73
2024/01/24 08:59:55;;;;;;;0.70;0.43;;;;;;;2.51;100.00;99224.78;4271530;28;25688;-71
2024/01/24 09:02:22;;;;;;;0.97;0.50;;;;;;;2.51;100.00;99231.94;4348870;28;20256;-75
2024/01/24 09:04:51;;;;;;;4.53;0.77;;;;;;;2.61;100.00;99221.34;4276372;28;21841;-74
2024/01/24 09:07:22;;;;;;;0.77;0.53;;;;;;;2.67;100.00;99227.03;4289070;28;20619;-73
2024/01/24 09:09:51;;;;;;;1.20;0.87;;;;;;;2.64;100.00;99211.28;4241259;28;22411;-66
2024/01/24 09:12:18;;;;;;;0.10;0.10;;;;;;;2.66;100.00;99211.97;4239940;28;20238;-67
2024/01/24 09:14:45;;;;;;;0.10;0.10;;;;;;;2.75;100.00;99215.72;4229433;28;21176;-66
2024/01/24 09:17:12;;;;;;;6.03;0.40;;;;;;;2.80;100.00;99204.63;4236246;28;20417;-67
2024/01/24 09:19:42;;;;;;;0.43;0.43;;;;;;;2.84;100.00;99195.41;4252442;28;20266;-68
2024/01/24 09:22:12;;;;;;;0.80;0.53;;;;;;;2.92;100.00;99197.41;4264204;28;20616;-66
2024/01/24 09:24:38;;;;;;;0.43;0.43;;;;;;;2.93;100.00;99183.06;4253253;28;20331;-69
2024/01/24 09:27:05;;;;;;;0.10;0.10;;;;;;;2.96;100.00;99188.19;4268629;28;20253;-67
2024/01/24 09:29:32;;;;;;;0.77;0.77;;;;;;;2.97;100.00;99177.34;4255931;28;22205;-68
2024/01/24 09:31:59;;;;;;;0.20;0.20;;;;;;;3.03;100.00;99184.00;4241821;28;20502;-67
2024/01/24 09:34:26;;;;;;;0.10;0.10;;;;;;;3.05;100.00;99166.00;4273068;28;20484;-65
2024/01/24 09:36:54;;;;;;;1.20;0.40;;;;;;;3.12;100.00;99144.94;4228482;28;20381;-67
2024/01/24 09:39:22;;;;;;;2.10;1.03;;;;;;;3.18;100.00;99144.41;4244432;28;22208;-68
2024/01/24 09:41:51;;;;;;;0.17;0.17;;;;;;;3.21;100.00;99130.78;4261943;28;21810;-66
2024/01/24 09:44:19;;;;;;;0.70;0.40;;;;;;;3.21;100.00;99133.44;4275373;28;21056;-69
2024/01/24 09:46:52;;;;;;;0.97;0.57;;;;;;;3.30;100.00;99124.63;4273338;28;20233;-70
2024/01/24 09:49:19;;;;;;;1.17;0.77;;;;;;;3.34;100.00;99133.25;4262058;28;20279;-70
2024/01/24 09:51:49;;;;;;;0.10;0.10;;;;;;;3.40;100.00;99118.50;4244320;28;20299;-72
2024/01/24 09:54:20;;;;;;;2.20;0.90;;;;;;;3.41;100.00;99088.06;4249691;28;20438;-70
2024/01/24 09:56:48;;;;;;;1.50;0.40;;;;;;;3.47;100.00;99095.56;4267278;28;22181;-69
2024/01/24 09:59:16;;;;;;;2.23;1.33;;;;;;;3.54;100.00;99127.97;4255402;28;20231;-69
2024/01/24 10:01:46;;;;;;;2.80;1.20;;;;;;;3.49;100.00;99118.53;4271489;28;20228;-70
2024/01/24 10:04:14;;;;;;;0.73;0.30;;;;;;;3.46;100.00;99113.44;4250330;28;20818;-71
2024/01/24 10:06:42;;;;;;;0.67;0.43;;;;;;;3.67;100.00;99096.47;4240239;28;20232;-72
2024/01/24 10:09:09;;;;;;;2.43;0.87;;;;;;;3.66;100.00;99102.81;4220370;28;20418;-72
2024/01/24 10:11:36;;;;;;;0.10;0.10;;;;;;;3.66;100.00;99089.44;4221107;28;20377;-75
2024/01/24 10:14:03;;;;;;;0.13;0.10;;;;;;;3.69;100.00;99099.00;4233630;28;20246;-71
2024/01/24 10:16:29;;;;;;;0.63;0.37;;;;;;;3.75;100.00;99095.78;4220828;28;20234;-74
2024/01/24 10:18:56;;;;;;;0.57;0.13;;;;;;;3.69;100.00;99088.31;4217691;28;20237;-73
2024/01/24 10:21:25;;;;;;;7.80;1.13;;;;;;;3.57;100.00;99087.56;4223585;28;20232;-72
2024/01/24 10:23:57;;;;;;;0.87;0.47;;;;;;;3.60;100.00;99077.44;4217700;28;20240;-71
2024/01/24 10:26:29;;;;;;;1.43;0.77;;;;;;;3.59;100.00;99072.19;4220151;28;20300;-73
2024/01/24 10:28:56;;;;;;;0.17;0.13;;;;;;;3.77;100.00;99073.25;4230024;28;20240;-71
2024/01/24 10:31:24;;;;;;;0.10;0.10;;;;;;;3.85;100.00;99072.56;4220086;28;20238;-69
2024/01/24 10:33:57;;;;;;;3.83;1.97;;;;;;;3.78;100.00;99053.53;4214848;28;21321;-69
2024/01/24 10:36:27;;;;;;;0.67;0.43;;;;;;;3.79;100.00;99057.03;4246611;28;20236;-70
2024/01/24 10:39:03;;;;;;;2.07;0.77;;;;;;;3.63;100.00;99046.88;4206639;28;21108;-68
2024/01/24 10:41:32;;;;;;;1.17;0.83;;;;;;;3.64;100.00;99048.56;4217450;28;21893;-68
2024/01/24 10:44:06;;;;;;;3.13;1.30;;;;;;;3.71;100.00;99040.81;4215056;28;20228;-69
2024/01/24 10:46:33;;;;;;;1.43;0.97;;;;;;;3.73;100.00;99023.66;4215615;28;21180;-69
2024/01/24 10:49:01;;;;;;;0.73;0.50;;;;;;;3.75;100.00;99021.69;4215030;28;20307;-69
2024/01/24 10:51:29;;;;;;;0.77;0.50;;;;;;;3.83;100.00;99020.13;4230982;28;20307;-71
2024/01/24 10:53:57;;;;;;;2.43;1.00;;;;;;;3.92;100.00;99013.94;4209715;28;20228;-68
2024/01/24 10:56:24;;;;;;;6.40;2.53;;;;;;;3.82;100.00;99005.91;4200505;28;20248;-70
2024/01/24 10:58:51;;;;;;;0.43;0.43;;;;;;;3.84;100.00;99001.28;4216411;28;20989;-69
2024/01/24 11:01:18;;;;;;;2.07;1.30;;;;;;;3.80;100.00;99002.53;4203522;28;20365;-70
2024/01/24 11:03:49;;;;;;;1.33;0.70;;;;;;;3.83;100.00;98999.59;4213926;28;20250;-69
2024/01/24 11:06:18;;;;;;;3.70;1.33;;;;;;;3.84;100.00;98993.25;4214051;28;26083;-70
2024/01/24 11:09:02;;;;;;;1.50;0.63;;;;;;;4.06;100.00;98981.41;4214106;28;21635;-68
2024/01/24 11:11:31;;;;;;;1.60;1.00;;;;;;;3.98;100.00;99000.00;4194748;28;20513;-69
2024/01/24 11:13:59;;;;;;;0.63;0.60;;;;;;;3.94;100.00;98993.25;4212980;28;20237;-70
2024/01/24 11:16:25;;;;;;;1.57;0.97;;;;;;;4.05;100.00;98985.06;4210274;28;21066;-70
2024/01/24 11:18:56;;;;;;;1.30;0.37;;;;;;;4.04;100.00;98993.25;4207799;28;20296;-69
2024/01/24 11:21:23;;;;;;;0.47;0.47;;;;;;;4.03;100.00;98995.09;4223884;28;20236;-70
2024/01/24 11:23:50;;;;;;;0.83;0.73;;;;;;;4.02;100.00;99001.44;4208701;28;21954;-70
2024/01/24 11:26:16;;;;;;;2.57;1.60;;;;;;;4.06;100.00;98985.91;4211172;28;22004;-70
2024/01/24 11:28:47;;;;;;;3.17;1.80;;;;;;;4.15;100.00;98993.13;4211997;28;20411;-71
2024/01/24 11:31:14;;;;;;;4.50;1.67;;;;;;;4.22;100.00;98983.53;4209601;28;21200;-70
2024/01/24 11:34:09;;;;;;;12.47;4.53;;;;;;;4.38;100.00;98982.91;4205733;28;21082;-69
2024/01/24 11:36:41;;;;;;;0.93;0.53;;;;;;;4.41;100.00;98974.59;4223584;28;20236;-69